Pagrindinis puslapis
METAR-TAF:

METAR-TAF

Oro uostai :

San Antonio del Táchira, Venesuela

platuma: 07-51N, ilguma: 072-27W, Aukštis: 377 m

METAR: trūkstamas

Laikas: 00:19 (04:19 UTC)

Prognozė

Ataskaita buvo paskelbta 6 valandos ir 19 minutes, ne 22:00 UTC
Prognozė galioja nuo 18 metu 00 UTC su 19 metu 00 UTC
Vėjas 4 kt iš Šiaurės/Šiaurės Vakarų
Matomumas 10 km arba daugiau
Išsisklaidę debesys ne aukštis 1600 ft
Tapsmas
nuo 18 metu 00 UTC su 18 metu 04 UTC
Vėjas 10 kt iš Pietų
Matomumas 10 km arba daugiau
Su prošvaistėmis ne aukštis 1600 ft

TAF: SVSA 172200Z 1800/1900 34004KT 9999 SCT016 TX32/18Z TN23/09Z BECMG 1800/1804 18010KT 9999 BKN016

Orai ataskaitas ir orų prognozės (METAR, TAF).

turimą stotys yra geltonos ir raudonos taškus žemėlapyje.

Perkelti pele per norėdami pamatyti stoties vardą.

Tada spustelėkite, norėdami matyti oro stebėjimo ir prognozės.

Norėdami pakeisti žemėlapį: spustelėkite ant žalios mygtukų su juodo kryžiaus žemyn,; žalią mygtuką su brūkšneliu, jei norite nutolinti; arba žalių rodyklių gretimoms žemėlapius.


METAR-TAF: